Time;durP1;ratioP1;P1;durP2;ratioP2;P2;SDS_P1;SDS_P2;PMS_P1;PMS_P2;Temp;Humidity;BMP_temperature;BMP_pressure;BME280_temperature;BME280_humidity;BME280_pressure;Samples;Min_cycle;Max_cycle;Signal;HPM_P1;HPM_P2
2021/07/05 00:00:12;;;;;;;6.72;3.75;;;;;;;22.07;44.74;94223.41;2978728;39;20274;-69
2021/07/05 00:02:15;;;;;;;6.85;3.97;;;;;;;22.06;44.85;94213.75;2981508;39;20066;-70
2021/07/05 00:04:16;;;;;;;5.57;3.93;;;;;;;22.07;44.88;94220.72;2992581;39;20112;-70
2021/07/05 00:06:18;;;;;;;7.68;3.83;;;;;;;21.87;45.20;94215.03;2993848;39;20076;-70
2021/07/05 00:08:20;;;;;;;5.55;3.38;;;;;;;21.79;45.33;94224.25;2993657;39;20049;-70
2021/07/05 00:10:25;;;;;;;5.65;4.05;;;;;;;21.65;45.61;94221.06;2992939;39;20053;-70
2021/07/05 00:12:26;;;;;;;6.72;3.75;;;;;;;21.62;45.84;94218.91;2982475;39;20051;-69
2021/07/05 00:14:28;;;;;;;5.68;3.60;;;;;;;21.66;45.88;94217.38;2998117;39;20494;-69
2021/07/05 00:16:30;;;;;;;5.28;3.40;;;;;;;21.70;45.86;94214.22;2993277;39;20336;-69
2021/07/05 00:18:32;;;;;;;6.57;4.35;;;;;;;21.76;46.04;94213.25;2997815;39;20087;-70
2021/07/05 00:20:37;;;;;;;4.38;3.58;;;;;;;21.82;45.83;94204.31;2993602;39;20155;-69
2021/07/05 00:22:38;;;;;;;5.35;4.10;;;;;;;21.82;46.23;94204.31;2993003;39;20088;-70
2021/07/05 00:24:41;;;;;;;5.68;3.85;;;;;;;21.84;46.53;94202.19;2998403;39;20063;-69
2021/07/05 00:26:43;;;;;;;5.10;3.90;;;;;;;21.84;46.51;94199.53;2992818;39;20063;-71
2021/07/05 00:28:44;;;;;;;8.55;3.72;;;;;;;21.85;46.50;94204.63;2974944;39;20236;-69
2021/07/05 00:30:46;;;;;;;5.93;3.67;;;;;;;21.86;46.75;94195.56;2982810;39;20051;-70
2021/07/05 00:32:49;;;;;;;6.05;4.00;;;;;;;21.86;47.04;94192.91;2982435;39;20043;-69
2021/07/05 00:34:52;;;;;;;6.82;4.20;;;;;;;21.83;46.79;94180.06;2993050;39;20082;-69
2021/07/05 00:36:54;;;;;;;8.70;4.13;;;;;;;21.82;46.83;94188.31;2991550;39;20148;-70
2021/07/05 00:38:55;;;;;;;5.82;3.53;;;;;;;21.78;46.91;94187.16;2992652;39;20135;-70
2021/07/05 00:40:57;;;;;;;5.15;4.05;;;;;;;21.74;47.39;94181.50;2983430;39;20108;-70
2021/07/05 00:42:59;;;;;;;6.97;3.92;;;;;;;21.73;47.00;94179.91;2996504;39;20063;-69
2021/07/05 00:45:06;;;;;;;5.47;3.90;;;;;;;21.73;46.99;94179.09;2994255;39;20398;-69
2021/07/05 00:47:08;;;;;;;4.82;3.55;;;;;;;21.74;47.21;94180.69;2996538;39;20079;-70
2021/07/05 00:49:11;;;;;;;4.53;3.60;;;;;;;21.74;47.12;94178.03;2992785;39;20092;-70
2021/07/05 00:51:13;;;;;;;4.75;3.55;;;;;;;21.73;47.22;94184.44;2991512;39;20063;-69
2021/07/05 00:53:16;;;;;;;6.65;3.95;;;;;;;21.70;47.35;94182.22;2993709;39;20091;-84
2021/07/05 00:55:18;;;;;;;4.90;3.58;;;;;;;21.67;47.38;94184.31;2984738;39;20067;-83
2021/07/05 00:57:20;;;;;;;6.03;5.07;;;;;;;21.68;47.61;94182.47;2986394;39;20064;-82
2021/07/05 00:59:22;;;;;;;4.97;4.40;;;;;;;21.59;47.08;94182.03;2986089;39;20454;-83
2021/07/05 01:01:24;;;;;;;6.95;4.18;;;;;;;21.24;47.90;94183.00;2993723;39;20125;-83
2021/07/05 01:03:26;;;;;;;9.57;4.43;;;;;;;21.05;48.80;94184.22;2983730;39;20058;-85
2021/07/05 01:05:28;;;;;;;8.38;4.03;;;;;;;21.00;48.95;94206.22;2993849;39;20158;-85
2021/07/05 01:07:30;;;;;;;6.15;4.35;;;;;;;20.88;49.22;94200.13;2984437;39;20089;-83
2021/07/05 01:09:32;;;;;;;5.90;4.60;;;;;;;20.14;50.96;94205.13;2979136;39;20067;-82
2021/07/05 01:11:33;;;;;;;7.07;4.63;;;;;;;19.09;53.56;94201.91;2996011;39;20077;-81
2021/07/05 01:13:35;;;;;;;7.00;4.90;;;;;;;18.49;55.27;94207.06;2989709;39;20147;-84
2021/07/05 01:15:37;;;;;;;7.07;5.07;;;;;;;18.32;55.70;94206.81;2996591;39;20059;-84
2021/07/05 01:17:40;;;;;;;5.72;4.63;;;;;;;18.21;56.06;94203.84;2993535;39;20066;-85
2021/07/05 01:19:45;;;;;;;6.68;4.20;;;;;;;18.32;55.88;94193.56;2995146;39;20091;-83
2021/07/05 01:21:47;;;;;;;7.10;4.50;;;;;;;18.51;55.05;94195.19;2985798;39;20304;-85
2021/07/05 01:23:49;;;;;;;6.05;4.82;;;;;;;18.79;54.41;94197.38;2985833;39;20158;-83
2021/07/05 01:25:52;;;;;;;6.80;4.32;;;;;;;19.13;53.75;94191.66;2991107;39;20051;-85
2021/07/05 01:27:54;;;;;;;6.20;3.95;;;;;;;19.43;52.96;94196.97;2996960;39;20028;-84
2021/07/05 01:29:56;;;;;;;5.68;4.20;;;;;;;19.65;51.77;94184.78;2970731;39;20054;-85
2021/07/05 01:31:59;;;;;;;7.45;3.70;;;;;;;19.87;51.03;94194.09;2987598;39;20156;-85
2021/07/05 01:34:02;;;;;;;5.40;3.53;;;;;;;19.83;50.51;94188.44;2977329;39;20450;-84
2021/07/05 01:36:04;;;;;;;5.10;3.90;;;;;;;19.67;50.84;94194.38;2993002;39;20066;-83
2021/07/05 01:38:19;;;;;;;4.63;3.72;;;;;;;19.59;51.42;94185.69;2992617;39;20059;-81
2021/07/05 01:40:21;;;;;;;4.85;3.97;;;;;;;19.45;51.67;94189.59;2978767;39;20075;-84
2021/07/05 01:42:23;;;;;;;5.65;4.20;;;;;;;18.98;53.02;94192.06;2999993;39;20062;-83
2021/07/05 01:44:25;;;;;;;5.53;3.78;;;;;;;18.52;54.65;94185.41;2995250;39;20095;-83
2021/07/05 01:46:26;;;;;;;5.05;4.00;;;;;;;18.45;55.06;94190.78;2995046;39;20051;-83
2021/07/05 01:48:29;;;;;;;4.93;3.70;;;;;;;18.55;54.85;94187.63;2981879;39;20383;-83
2021/07/05 01:50:30;;;;;;;7.20;4.07;;;;;;;18.16;56.47;94185.16;2994381;39;20079;-85
2021/07/05 01:52:32;;;;;;;5.93;3.75;;;;;;;17.76;57.25;94187.28;2977093;39;20063;-80
2021/07/05 01:54:34;;;;;;;4.95;3.80;;;;;;;17.54;57.86;94186.84;2996995;39;20089;-82
2021/07/05 01:56:36;;;;;;;5.05;3.95;;;;;;;17.22;59.20;94186.84;2996573;39;20046;-85
2021/07/05 01:58:38;;;;;;;7.57;3.67;;;;;;;17.31;58.57;94188.19;2994145;39;20134;-70
2021/07/05 02:00:44;;;;;;;6.47;3.85;;;;;;;17.55;58.14;94189.28;2990301;39;20054;-69
2021/07/05 02:02:46;;;;;;;4.35;3.50;;;;;;;17.59;58.13;94189.66;2992297;39;20299;-81
2021/07/05 02:04:49;;;;;;;5.28;3.80;;;;;;;17.61;58.29;94192.91;2997559;39;20054;-84
2021/07/05 02:06:51;;;;;;;5.65;3.92;;;;;;;17.41;58.91;94193.03;2993732;39;20055;-81
2021/07/05 02:08:52;;;;;;;5.85;4.03;;;;;;;17.34;59.10;94184.34;2986395;39;20444;-83
2021/07/05 02:10:55;;;;;;;4.90;3.83;;;;;;;17.50;58.75;94190.94;2991533;39;20336;-82
2021/07/05 02:12:58;;;;;;;4.82;3.85;;;;;;;17.59;58.41;94187.00;2984898;39;20055;-83
2021/07/05 02:15:00;;;;;;;6.45;3.78;;;;;;;17.79;57.75;94187.69;2994526;39;20377;-84
2021/07/05 02:17:04;;;;;;;7.38;4.07;;;;;;;18.09;56.93;94195.00;2996556;39;20055;-82
2021/07/05 02:19:06;;;;;;;5.43;3.70;;;;;;;18.36;56.03;94187.59;2994231;39;20119;-83
2021/07/05 02:21:08;;;;;;;6.13;4.38;;;;;;;18.63;55.22;94185.50;2984394;39;20052;-70
2021/07/05 02:23:12;;;;;;;4.88;3.78;;;;;;;18.89;54.85;94182.78;2992532;39;20094;-69
2021/07/05 02:25:14;;;;;;;;;;;;;;;19.04;54.24;94180.53;2993021;39;20055;-71
2021/07/05 02:27:15;;;;;;;5.35;3.72;;;;;;;19.20;53.74;94179.91;2992114;39;20066;-69
2021/07/05 02:29:17;;;;;;;6.70;3.80;;;;;;;19.38;53.12;94176.41;2992562;39;20059;-71
2021/07/05 02:31:19;;;;;;;5.03;3.83;;;;;;;19.50;52.70;94176.44;2987106;39;20066;-72
2021/07/05 02:33:23;;;;;;;5.20;3.80;;;;;;;19.55;52.26;94179.25;2990083;39;20051;-69
2021/07/05 02:35:28;;;;;;;4.20;3.03;;;;;;;19.62;52.07;94173.81;2982208;39;20111;-71
2021/07/05 02:37:29;;;;;;;4.82;3.70;;;;;;;19.60;52.02;94183.88;2988827;39;20060;-70
2021/07/05 02:39:31;;;;;;;4.88;3.75;;;;;;;19.62;52.37;94176.47;2979426;39;20091;-71
2021/07/05 02:41:33;;;;;;;4.97;3.63;;;;;;;19.67;52.16;94178.44;2983244;39;20060;-70
2021/07/05 02:43:35;;;;;;;5.35;3.35;;;;;;;19.70;51.89;94173.50;2982900;39;20088;-69
2021/07/05 02:45:38;;;;;;;4.70;4.10;;;;;;;19.56;52.38;94183.50;2975763;39;20544;-71
2021/07/05 02:47:39;;;;;;;6.60;4.10;;;;;;;19.11;53.52;94188.44;2981183;39;20051;-70
2021/07/05 02:49:41;;;;;;;6.47;4.10;;;;;;;18.85;54.13;94181.59;2987897;39;20050;-69
2021/07/05 02:51:43;;;;;;;7.45;3.97;;;;;;;18.86;54.43;94193.81;2988379;39;20055;-70
2021/07/05 02:53:45;;;;;;;6.03;3.97;;;;;;;18.93;54.26;94181.28;2990265;39;20074;-68
2021/07/05 02:55:47;;;;;;;7.32;4.07;;;;;;;19.10;53.75;94182.31;2992303;39;20059;-70
2021/07/05 02:57:49;;;;;;;9.25;4.40;;;;;;;19.23;53.25;94179.47;2986429;39;20130;-68
2021/07/05 02:59:51;;;;;;;8.10;4.55;;;;;;;19.08;53.94;94186.19;2991539;39;20098;-69
2021/07/05 03:01:52;;;;;;;8.23;4.95;;;;;;;18.59;54.93;94188.81;2981497;39;20470;-69
2021/07/05 03:03:54;;;;;;;9.90;4.32;;;;;;;18.26;56.23;94174.03;2991130;39;20408;-69
2021/07/05 03:05:57;;;;;;;7.72;4.20;;;;;;;17.99;57.02;94190.19;2992046;39;20083;-69
2021/07/05 03:07:59;;;;;;;5.45;4.63;;;;;;;18.04;56.93;94191.38;2983148;39;20073;-69
2021/07/05 03:10:07;;;;;;;5.68;4.47;;;;;;;18.01;57.03;94185.50;2983094;39;20191;-68
2021/07/05 03:12:12;;;;;;;6.13;4.45;;;;;;;17.95;57.21;94196.94;2992379;39;20063;-70
2021/07/05 03:14:13;;;;;;;7.13;4.47;;;;;;;18.09;56.92;94195.00;2982823;39;20052;-70
2021/07/05 03:16:16;;;;;;;4.93;3.83;;;;;;;18.35;56.27;94188.66;2990104;39;20062;-70
2021/07/05 03:18:18;;;;;;;7.00;3.75;;;;;;;18.65;55.53;94187.94;2991890;39;20055;-70
2021/07/05 03:20:24;;;;;;;6.30;4.15;;;;;;;18.94;54.51;94191.69;2983165;39;20047;-69
2021/07/05 03:22:25;;;;;;;5.22;3.78;;;;;;;19.13;53.76;94195.13;2992009;39;20067;-68
2021/07/05 03:24:27;;;;;;;7.22;4.95;;;;;;;19.29;53.60;94193.69;2992224;39;20051;-69
2021/07/05 03:26:29;;;;;;;11.18;4.28;;;;;;;19.37;53.18;94193.38;2991925;39;20132;-69
2021/07/05 03:28:30;;;;;;;5.78;4.20;;;;;;;19.51;53.19;94193.16;2991268;39;20391;-68
2021/07/05 03:30:34;;;;;;;5.05;3.97;;;;;;;19.64;52.84;94196.47;2991212;39;20049;-68
2021/07/05 03:32:36;;;;;;;;;;;;;;;19.86;52.34;94203.94;2982735;39;20091;-69
2021/07/05 03:34:38;;;;;;;9.43;3.83;;;;;;;19.97;51.77;94195.16;2982444;39;19931;-70
2021/07/05 03:36:39;;;;;;;6.25;4.60;;;;;;;20.05;51.50;94192.16;2982568;39;20090;-69
2021/07/05 03:38:41;;;;;;;6.03;4.15;;;;;;;20.08;51.48;94180.25;2991247;39;20400;-68
2021/07/05 03:40:43;;;;;;;8.93;4.45;;;;;;;20.19;51.33;94184.75;2991796;39;20143;-69
2021/07/05 03:42:46;;;;;;;6.78;3.95;;;;;;;20.28;51.18;94181.75;2983919;39;20059;-81
2021/07/05 03:44:48;;;;;;;7.20;4.93;;;;;;;20.34;51.30;94172.84;2993210;39;20212;-84
2021/07/05 03:46:50;;;;;;;6.35;3.75;;;;;;;20.40;51.18;94186.03;2989593;39;20158;-82
2021/07/05 03:48:51;;;;;;;5.45;3.85;;;;;;;20.49;51.11;94181.16;2987006;39;20051;-81
2021/07/05 03:50:53;;;;;;;4.93;3.83;;;;;;;20.60;50.87;94183.03;2975580;39;20063;-82
2021/07/05 03:52:55;;;;;;;6.43;4.40;;;;;;;20.68;50.95;94186.41;2983793;39;20180;-82
2021/07/05 03:54:59;;;;;;;6.45;4.13;;;;;;;20.69;50.75;94186.13;2993553;39;20400;-80
2021/07/05 03:57:01;;;;;;;6.72;4.63;;;;;;;20.65;51.09;94191.16;2988231;39;20156;-83
2021/07/05 03:59:03;;;;;;;6.22;4.15;;;;;;;20.63;51.22;94187.91;2982715;39;20081;-67
2021/07/05 04:01:05;;;;;;;6.85;4.30;;;;;;;20.67;51.24;94188.22;2973362;39;20068;-69
2021/07/05 04:03:07;;;;;;;8.60;4.88;;;;;;;20.76;51.13;94191.38;2987541;39;20096;-69
2021/07/05 04:05:09;;;;;;;8.60;4.72;;;;;;;20.83;51.29;94190.19;2991550;39;20059;-69
2021/07/05 04:07:11;;;;;;;5.07;3.83;;;;;;;20.90;51.12;94187.38;2990894;39;20054;-68
2021/07/05 04:09:13;;;;;;;7.80;4.65;;;;;;;20.92;51.10;94192.47;2981035;39;20727;-70
2021/07/05 04:11:15;;;;;;;7.13;4.78;;;;;;;21.03;50.79;94197.75;2990893;39;20140;-71
2021/07/05 04:13:16;;;;;;;10.02;5.05;;;;;;;21.13;50.39;94183.84;2991906;39;20127;-68
2021/07/05 04:15:19;;;;;;;7.82;4.50;;;;;;;21.19;50.10;94174.91;2990516;39;20108;-70
2021/07/05 04:17:20;;;;;;;6.90;4.70;;;;;;;21.22;49.96;94177.09;2991159;39;20127;-68
2021/07/05 04:19:22;;;;;;;6.93;5.00;;;;;;;21.27;49.97;94176.38;2990617;39;20058;-70
2021/07/05 04:21:26;;;;;;;7.05;4.72;;;;;;;21.38;49.82;94172.03;2991825;39;20050;-68
2021/07/05 04:23:27;;;;;;;9.75;5.07;;;;;;;21.38;49.63;94169.38;2982505;39;20440;-70
2021/07/05 04:25:29;;;;;;;5.32;4.35;;;;;;;21.33;49.47;94161.28;2982369;39;20060;-69
2021/07/05 04:27:31;;;;;;;7.22;3.88;;;;;;;21.31;49.65;94160.72;2990705;39;20062;-70
2021/07/05 04:29:33;;;;;;;6.75;4.72;;;;;;;21.42;49.33;94165.22;2981454;39;20088;-70
2021/07/05 04:31:34;;;;;;;5.82;4.47;;;;;;;21.37;49.51;94165.09;2990083;39;20051;-70
2021/07/05 04:33:41;;;;;;;6.13;4.25;;;;;;;21.43;49.34;94158.84;2986605;39;20468;-72
2021/07/05 04:35:44;;;;;;;7.70;4.57;;;;;;;21.48;49.31;94159.72;2991593;39;20542;-69
2021/07/05 04:37:47;;;;;;;6.47;4.25;;;;;;;21.45;49.09;94154.91;2992064;39;20364;-70
2021/07/05 04:39:49;;;;;;;6.13;4.38;;;;;;;21.45;49.60;94168.22;2991516;39;20146;-69
2021/07/05 04:41:51;;;;;;;7.38;4.85;;;;;;;21.47;49.26;94160.78;2989813;39;20050;-69
2021/07/05 04:43:53;;;;;;;5.75;4.28;;;;;;;21.52;49.25;94165.41;2973554;39;20055;-69
2021/07/05 04:45:56;;;;;;;5.38;4.53;;;;;;;21.58;49.04;94167.13;2990391;39;20393;-70
2021/07/05 04:48:00;;;;;;;7.65;4.97;;;;;;;21.33;49.01;94163.97;2979374;39;20064;-69
2021/07/05 04:50:03;;;;;;;8.30;4.95;;;;;;;20.77;50.23;94169.81;2988309;39;20079;-69
2021/07/05 04:52:05;;;;;;;5.85;4.93;;;;;;;20.27;51.54;94175.63;2993138;39;20106;-69
2021/07/05 04:54:06;;;;;;;8.13;5.50;;;;;;;20.14;51.70;94173.22;2992754;39;20415;-71
2021/07/05 04:56:08;;;;;;;8.63;5.40;;;;;;;20.22;51.90;94172.88;2986755;39;20127;-69
2021/07/05 04:58:10;;;;;;;7.65;5.75;;;;;;;20.27;51.12;94180.97;2983511;39;20529;-70
2021/07/05 05:00:16;;;;;;;7.80;5.05;;;;;;;20.13;51.38;94185.69;2982237;39;20419;-70
2021/07/05 05:02:31;;;;;;;7.72;4.90;;;;;;;20.26;51.75;94187.31;2991764;39;20047;-70
2021/07/05 05:04:33;;;;;;;5.38;4.38;;;;;;;20.44;51.42;94184.53;2992904;39;20556;-70
2021/07/05 05:06:35;;;;;;;7.32;4.90;;;;;;;20.61;51.26;94182.00;2982311;39;20052;-70
2021/07/05 05:08:36;;;;;;;5.90;4.93;;;;;;;20.78;50.82;94182.09;2991939;39;20067;-69
2021/07/05 05:10:39;;;;;;;7.07;4.82;;;;;;;20.93;50.29;94189.59;2993108;39;20054;-69
2021/07/05 05:12:41;;;;;;;5.70;4.70;;;;;;;21.07;49.64;94190.13;2983915;39;20103;-70
2021/07/05 05:14:43;;;;;;;7.97;5.07;;;;;;;21.13;49.31;94191.84;2992800;39;20062;-70
2021/07/05 05:16:46;;;;;;;6.95;5.28;;;;;;;21.15;49.05;94189.75;2990924;39;20051;-70
2021/07/05 05:18:48;;;;;;;5.93;4.80;;;;;;;21.16;49.20;94172.69;2990848;39;20106;-69
2021/07/05 05:20:50;;;;;;;7.75;4.93;;;;;;;21.22;49.18;94169.09;2992263;39;20464;-69
2021/07/05 05:22:52;;;;;;;7.88;4.55;;;;;;;21.34;48.95;94173.56;2992130;39;20157;-69
2021/07/05 05:24:54;;;;;;;6.03;4.45;;;;;;;21.50;48.73;94164.03;2992601;39;20116;-71
2021/07/05 05:26:55;;;;;;;8.23;4.57;;;;;;;21.59;48.26;94174.03;2989747;39;20059;-69
2021/07/05 05:28:58;;;;;;;6.40;4.47;;;;;;;21.73;47.84;94177.22;2990677;39;20486;-69
2021/07/05 05:31:00;;;;;;;11.35;4.93;;;;;;;21.92;47.63;94175.16;2982662;39;20135;-70
2021/07/05 05:33:02;;;;;;;11.40;5.70;;;;;;;22.12;46.94;94181.84;2982993;39;20058;-70
2021/07/05 05:35:05;;;;;;;8.77;5.20;;;;;;;22.21;46.64;94175.84;2991572;39;20321;-71
2021/07/05 05:37:07;;;;;;;;;;;;;;;22.25;46.20;94179.69;2975522;39;20087;-73
2021/07/05 05:39:09;;;;;;;12.15;5.30;;;;;;;22.23;46.60;94181.78;2974094;39;20304;-68
2021/07/05 05:41:11;;;;;;;7.13;4.68;;;;;;;22.36;46.68;94182.50;2991031;39;20422;-71
2021/07/05 05:43:13;;;;;;;7.47;5.53;;;;;;;22.01;46.74;94181.69;2993026;39;20059;-83
2021/07/05 05:45:15;;;;;;;6.70;5.45;;;;;;;21.70;47.26;94179.56;2989692;39;20512;-85
2021/07/05 05:47:17;;;;;;;6.28;5.25;;;;;;;21.58;47.62;94172.44;2984739;39;20400;-85
2021/07/05 05:49:19;;;;;;;9.07;6.05;;;;;;;21.51;48.40;94168.31;2969612;39;20075;-84
2021/07/05 05:51:21;;;;;;;7.75;5.32;;;;;;;21.53;48.40;94167.03;2992094;39;20099;-84
2021/07/05 05:53:23;;;;;;;9.98;5.72;;;;;;;21.35;49.53;94169.88;2981895;39;20117;-85
2021/07/05 05:55:25;;;;;;;9.93;6.03;;;;;;;21.42;49.99;94173.22;2978243;39;20056;-83
2021/07/05 05:57:27;;;;;;;10.25;6.47;;;;;;;21.43;49.83;94175.66;2995411;39;20067;-84
2021/07/05 05:59:30;;;;;;;11.98;6.55;;;;;;;21.14;50.67;94181.97;2997213;39;20341;-84
2021/07/05 06:01:37;;;;;;;7.88;6.40;;;;;;;20.88;51.16;94181.47;2992004;39;20079;-82
2021/07/05 06:03:39;;;;;;;8.55;6.63;;;;;;;20.51;52.52;94189.72;2996126;39;20075;-83
2021/07/05 06:05:41;;;;;;;14.50;7.32;;;;;;;20.60;52.42;94188.34;2994812;39;20081;-85
2021/07/05 06:07:51;;;;;;;9.32;6.28;;;;;;;20.75;52.11;94190.53;2994714;39;20058;-84
2021/07/05 06:09:53;;;;;;;10.18;6.40;;;;;;;20.82;51.88;94193.06;2994662;39;20047;-84
2021/07/05 06:11:55;;;;;;;15.10;6.88;;;;;;;21.07;51.25;94179.47;2997794;39;20055;-84
2021/07/05 06:13:56;;;;;;;18.55;6.82;;;;;;;21.46;50.31;94174.34;2996923;39;20385;-84
2021/07/05 06:15:58;;;;;;;14.73;6.25;;;;;;;21.58;49.62;94163.66;2985130;39;20047;-84
2021/07/05 06:18:01;;;;;;;10.82;6.15;;;;;;;21.81;49.45;94171.50;2994334;39;20112;-84
2021/07/05 06:20:06;;;;;;;9.85;5.90;;;;;;;22.09;48.81;94164.44;2994262;39;20384;-83
2021/07/05 06:22:16;;;;;;;18.17;7.38;;;;;;;22.38;47.96;94151.84;2983784;39;20066;-85
2021/07/05 06:24:19;;;;;;;16.38;7.28;;;;;;;22.66;47.16;94158.09;2985325;39;20534;-83
2021/07/05 06:26:21;;;;;;;11.77;6.80;;;;;;;22.89;46.50;94149.84;2984874;39;20058;-85
2021/07/05 06:28:24;;;;;;;14.13;6.20;;;;;;;23.13;46.11;94154.16;2990686;39;20051;-84
2021/07/05 06:30:26;;;;;;;13.02;5.70;;;;;;;23.29;45.43;94148.69;2994838;39;20063;-83
2021/07/05 06:32:28;;;;;;;9.45;5.75;;;;;;;23.43;45.13;94142.97;2991506;39;20325;-86
2021/07/05 06:34:30;;;;;;;9.10;5.95;;;;;;;23.60;44.58;94138.31;2992808;39;20107;-84
2021/07/05 06:36:32;;;;;;;12.23;5.90;;;;;;;23.70;44.51;94133.06;2993946;39;20139;-83
2021/07/05 06:38:34;;;;;;;9.50;5.75;;;;;;;23.85;43.86;94136.94;2994016;39;20047;-82
2021/07/05 06:40:36;;;;;;;10.55;6.63;;;;;;;23.54;44.44;94131.31;2984179;39;20059;-85
2021/07/05 06:42:37;;;;;;;12.40;7.25;;;;;;;23.29;44.62;94129.19;2993918;39;20080;-84
2021/07/05 06:44:39;;;;;;;12.55;6.40;;;;;;;23.01;46.37;94132.91;2990939;39;20071;-86
2021/07/05 06:46:41;;;;;;;8.52;6.82;;;;;;;22.93;46.49;94131.47;2973976;39;20428;-84
2021/07/05 06:48:43;;;;;;;11.15;6.60;;;;;;;22.80;46.19;94131.81;2977193;39;20123;-84
2021/07/05 06:50:44;;;;;;;10.98;6.30;;;;;;;22.95;46.32;94125.84;2995326;39;20063;-84
2021/07/05 06:52:46;;;;;;;17.48;6.88;;;;;;;22.76;46.96;94138.72;2995508;39;20059;-85
2021/07/05 06:54:48;;;;;;;11.27;6.10;;;;;;;22.84;47.00;94124.94;2976592;39;20116;-86
2021/07/05 06:56:49;;;;;;;13.25;6.78;;;;;;;22.79;47.14;94124.88;2990649;39;20074;-85
2021/07/05 06:58:51;;;;;;;10.63;6.45;;;;;;;22.29;47.81;94130.09;2994678;39;20083;-85
2021/07/05 07:00:53;;;;;;;10.40;6.10;;;;;;;22.23;49.09;94124.94;2994477;39;20138;-84
2021/07/05 07:02:56;;;;;;;7.38;5.65;;;;;;;22.22;48.00;94131.28;2994524;39;20135;-84
2021/07/05 07:04:58;;;;;;;7.85;5.65;;;;;;;22.37;48.00;94130.72;2984621;39;20058;-85
2021/07/05 07:07:00;;;;;;;9.60;6.30;;;;;;;22.45;47.58;94130.31;2994847;39;20047;-83
2021/07/05 07:09:02;;;;;;;11.48;6.18;;;;;;;22.32;47.46;94128.81;2991538;39;20043;-85
2021/07/05 07:11:04;;;;;;;9.63;6.50;;;;;;;22.29;47.69;94123.97;2996680;39;20055;-84
2021/07/05 07:13:07;;;;;;;13.98;6.57;;;;;;;22.17;47.40;94124.03;2995435;39;20087;-84
2021/07/05 07:15:22;;;;;;;13.43;6.50;;;;;;;22.37;47.11;94128.06;2980115;39;20090;-83
2021/07/05 07:18:33;;;;;;;10.05;6.00;;;;;;;22.76;46.79;94128.84;2997632;39;20062;-85
2021/07/05 07:19:55;;;;;;;11.95;5.93;;;;;;;23.19;45.82;94126.41;2992215;39;20047;-86
2021/07/05 07:21:58;;;;;;;13.50;6.63;;;;;;;23.44;45.18;94115.16;2999192;39;20059;-85
2021/07/05 07:24:00;;;;;;;9.93;6.10;;;;;;;23.75;44.50;94123.44;2990954;39;20139;-84
2021/07/05 07:26:02;;;;;;;14.32;6.40;;;;;;;23.57;44.52;94116.63;2998355;39;20064;-85
2021/07/05 07:28:04;;;;;;;12.90;6.47;;;;;;;23.87;44.05;94121.44;3003356;39;20088;-84
2021/07/05 07:30:10;;;;;;;11.52;6.35;;;;;;;24.07;44.01;94124.28;2983983;39;20113;-86
2021/07/05 07:32:15;;;;;;;11.60;6.35;;;;;;;24.32;43.12;94118.25;2994052;39;20055;-82
2021/07/05 07:34:17;;;;;;;10.35;5.72;;;;;;;24.46;42.83;94118.63;2984959;39;20163;-86
2021/07/05 07:36:19;;;;;;;14.70;7.45;;;;;;;24.29;42.69;94118.00;2994201;39;20058;-84
2021/07/05 07:38:23;;;;;;;9.55;6.78;;;;;;;24.24;43.10;94121.44;2985113;39;20055;-87
2021/07/05 07:40:31;;;;;;;11.13;6.60;;;;;;;24.45;42.94;94125.03;2994709;39;20100;-83
2021/07/05 07:42:33;;;;;;;17.88;6.40;;;;;;;24.65;42.99;94121.69;2980733;39;20066;-85
2021/07/05 07:44:35;;;;;;;9.20;6.03;;;;;;;24.87;42.44;94118.84;2996600;39;20083;-85
2021/07/05 07:46:37;;;;;;;11.38;6.57;;;;;;;25.13;42.17;94119.72;2986724;39;20120;-84
2021/07/05 07:48:39;;;;;;;8.70;6.57;;;;;;;25.24;42.13;94109.88;3001098;39;20046;-85
2021/07/05 07:50:40;;;;;;;13.40;6.07;;;;;;;25.28;42.36;94119.00;2988109;39;20084;-85
2021/07/05 07:52:42;;;;;;;14.80;7.03;;;;;;;25.12;41.80;94117.31;2986976;39;20063;-84
2021/07/05 07:54:45;;;;;;;14.18;6.63;;;;;;;24.32;43.35;94118.25;2997170;39;20058;-84
2021/07/05 07:56:46;;;;;;;15.57;7.68;;;;;;;24.10;43.74;94114.94;3001120;39;20047;-85
2021/07/05 07:58:48;;;;;;;12.25;7.05;;;;;;;24.15;44.02;94117.63;2991825;39;20036;-87
2021/07/05 08:00:50;;;;;;;13.88;7.68;;;;;;;24.18;44.15;94110.94;2991438;39;20043;-69
2021/07/05 08:02:52;;;;;;;11.48;6.90;;;;;;;24.30;43.67;94114.25;2982292;39;20493;-70
2021/07/05 08:04:54;;;;;;;15.95;6.82;;;;;;;24.25;43.88;94106.19;2983554;39;20051;-84
2021/07/05 08:06:56;;;;;;;18.48;8.77;;;;;;;24.29;43.82;94112.66;2994434;39;20120;-84
2021/07/05 08:08:59;;;;;;;13.80;7.13;;;;;;;24.22;43.53;94110.19;2990835;39;20055;-87
2021/07/05 08:11:01;;;;;;;13.63;7.15;;;;;;;24.30;43.56;94108.88;2993848;39;20051;-84
2021/07/05 08:13:03;;;;;;;11.55;7.15;;;;;;;24.38;43.92;94111.09;2985304;39;20063;-83
2021/07/05 08:15:05;;;;;;;14.82;8.35;;;;;;;24.49;43.11;94112.78;2994613;39;20155;-84
2021/07/05 08:17:07;;;;;;;12.43;6.78;;;;;;;24.69;43.08;94105.91;2993125;39;20097;-84
2021/07/05 08:19:09;;;;;;;8.90;5.68;;;;;;;24.72;43.30;94105.41;2992449;39;20055;-83
2021/07/05 08:21:12;;;;;;;9.50;5.97;;;;;;;24.92;42.76;94104.66;2993856;39;20459;-84
2021/07/05 08:23:13;;;;;;;13.80;6.78;;;;;;;24.65;42.48;94099.44;2975958;39;20345;-85
2021/07/05 08:25:15;;;;;;;9.80;6.05;;;;;;;24.88;42.40;94099.00;2985368;39;20539;-86
2021/07/05 08:27:17;;;;;;;10.32;6.60;;;;;;;24.93;43.03;94098.25;2998415;39;20063;-85
2021/07/05 08:29:19;;;;;;;13.05;6.28;;;;;;;25.17;41.94;94098.56;3001590;39;20074;-83
2021/07/05 08:31:20;;;;;;;8.05;5.63;;;;;;;25.50;41.37;94099.97;3003010;39;20153;-85
2021/07/05 08:33:22;;;;;;;12.15;6.57;;;;;;;25.60;41.13;94095.69;2990775;39;20062;-85
2021/07/05 08:35:24;;;;;;;12.63;5.80;;;;;;;25.84;40.28;94087.94;2994192;39;20108;-82
2021/07/05 08:37:26;;;;;;;8.82;5.13;;;;;;;25.92;40.27;94085.53;2993506;39;20043;-86
2021/07/05 08:39:28;;;;;;;8.25;5.68;;;;;;;26.09;40.82;94087.94;2995015;39;20063;-84
2021/07/05 08:41:30;;;;;;;12.10;6.35;;;;;;;26.06;40.28;94091.16;2983212;39;20055;-84
2021/07/05 08:43:32;;;;;;;13.40;6.00;;;;;;;25.92;40.88;94087.41;2996914;39;20115;-82
2021/07/05 08:45:34;;;;;;;8.57;5.53;;;;;;;25.97;40.32;94076.69;2996054;39;20146;-87
2021/07/05 08:47:38;;;;;;;6.75;4.88;;;;;;;25.94;40.63;94088.75;2990274;39;20035;-85
2021/07/05 08:49:40;;;;;;;8.52;5.35;;;;;;;26.11;40.76;94085.78;2987153;39;20079;-86
2021/07/05 08:51:42;;;;;;;7.80;5.28;;;;;;;25.53;41.97;94085.22;2992141;39;20123;-86
2021/07/05 08:53:44;;;;;;;8.00;4.97;;;;;;;25.42;42.25;94080.94;3000729;39;20082;-85
2021/07/05 08:55:45;;;;;;;8.38;5.70;;;;;;;25.77;41.53;94076.66;2987918;39;20135;-85
2021/07/05 08:57:48;;;;;;;7.38;4.22;;;;;;;26.02;40.61;94081.22;2984539;39;20059;-85
2021/07/05 08:59:50;;;;;;;7.68;4.63;;;;;;;26.30;40.19;94077.16;2980847;39;20101;-85
2021/07/05 09:01:52;;;;;;;7.80;5.13;;;;;;;26.50;40.27;94073.59;2994479;39;20428;-84
2021/07/05 09:03:53;;;;;;;7.40;4.50;;;;;;;26.44;40.37;94074.72;2984640;39;20091;-84
2021/07/05 09:06:12;;;;;;;10.55;5.05;;;;;;;26.27;40.33;94066.97;2994626;39;20043;-85
2021/07/05 09:08:13;;;;;;;6.75;4.50;;;;;;;26.47;39.99;94071.47;2994127;39;20135;-83
2021/07/05 09:10:15;;;;;;;7.63;4.00;;;;;;;26.50;39.98;94068.22;2995455;39;20414;-85
2021/07/05 09:12:17;;;;;;;7.35;4.35;;;;;;;26.63;39.18;94065.00;2984399;39;20056;-85
2021/07/05 09:14:21;;;;;;;6.53;3.95;;;;;;;26.73;39.55;94056.09;2994048;39;20051;-83
2021/07/05 09:16:34;;;;;;;13.32;4.22;;;;;;;26.83;38.03;94058.72;2980602;39;20142;-84
2021/07/05 09:18:44;;;;;;;5.13;3.47;;;;;;;26.80;37.11;94056.56;2990392;39;20055;-86
2021/07/05 09:20:46;;;;;;;9.32;3.60;;;;;;;26.85;36.82;94056.56;2987612;39;20063;-84
2021/07/05 09:23:07;;;;;;;6.20;4.10;;;;;;;26.62;36.92;94065.28;2985947;39;20091;-87
2021/07/05 09:25:09;;;;;;;7.18;3.85;;;;;;;26.81;37.51;94046.66;2993578;39;20050;-87
2021/07/05 09:27:23;;;;;;;5.40;2.85;;;;;;;27.23;36.56;94048.03;2998791;39;20051;-84
2021/07/05 09:29:25;;;;;;;5.13;2.72;;;;;;;27.23;36.01;94045.34;2984317;39;20059;-86
2021/07/05 09:31:33;;;;;;;4.13;3.00;;;;;;;27.46;34.94;94047.34;2993924;39;20055;-85
2021/07/05 09:33:35;;;;;;;6.03;2.70;;;;;;;27.06;34.52;94059.13;2985485;39;20051;-82
2021/07/05 09:35:37;;;;;;;5.00;2.83;;;;;;;26.88;35.17;94047.16;2985417;39;20598;-80